Time;durP1;ratioP1;P1;durP2;ratioP2;P2;SDS_P1;SDS_P2;PMS_P1;PMS_P2;Temp;Humidity;BMP_temperature;BMP_pressure;BME280_temperature;BME280_humidity;BME280_pressure;Samples;Min_cycle;Max_cycle;Signal;HPM_P1;HPM_P2
2024/01/20 00:00:22;;;;;;;5.93;1.70;;;;;;;-1.88;100.00;101141.44;5531558;32;35056;-72
2024/01/20 00:03:25;;;;;;;14.10;8.05;;;;;;;-1.88;100.00;101138.84;5531467;32;34193;-72
2024/01/20 00:06:29;;;;;;;4.45;1.62;;;;;;;-1.90;100.00;101143.28;5531461;32;34627;-72
2024/01/20 00:09:32;;;;;;;13.98;8.00;;;;;;;-1.92;100.00;101142.50;5531373;32;33944;-72
2024/01/20 00:12:48;;;;;;;14.63;7.95;;;;;;;-1.93;100.00;101148.63;5519267;32;35051;-72
2024/01/20 00:15:51;;;;;;;3.97;2.05;;;;;;;-1.86;100.00;101157.84;5517404;32;34651;-72
2024/01/20 00:18:55;;;;;;;14.87;7.57;;;;;;;-1.78;100.00;101153.13;5531427;32;33957;-72
2024/01/20 00:21:58;;;;;;;15.80;7.45;;;;;;;-1.75;100.00;101160.81;5531425;32;34554;-74
2024/01/20 00:25:02;;;;;;;15.32;7.90;;;;;;;-1.73;100.00;101166.75;5531230;32;34707;-73
2024/01/20 00:28:06;;;;;;;5.40;1.52;;;;;;;-1.75;100.00;101166.00;5531290;32;34019;-72
2024/01/20 00:31:09;;;;;;;17.62;8.05;;;;;;;-1.74;100.00;101172.87;5539239;32;34229;-72
2024/01/20 00:34:12;;;;;;;16.58;7.93;;;;;;;-1.75;100.00;101166.00;5549782;32;34259;-72
2024/01/20 00:37:15;;;;;;;14.93;7.55;;;;;;;-1.80;100.00;101155.81;5550529;32;34013;-72
2024/01/20 00:40:19;;;;;;;13.85;8.07;;;;;;;-1.77;100.00;101163.47;5550386;32;34591;-73
2024/01/20 00:43:21;;;;;;;4.50;1.65;;;;;;;-1.79;100.00;101167.88;5550492;32;34253;-73
2024/01/20 00:46:24;;;;;;;15.10;7.47;;;;;;;-1.79;100.00;101173.06;5550395;32;34153;-72
2024/01/20 00:49:27;;;;;;;15.50;8.10;;;;;;;-1.78;100.00;101166.97;5549681;32;34018;-72
2024/01/20 00:52:30;;;;;;;1.90;1.42;;;;;;;-1.74;100.00;101172.06;5550411;32;34170;-71
2024/01/20 00:55:33;;;;;;;13.60;8.00;;;;;;;-1.68;100.00;101167.38;5549643;32;33953;-72
2024/01/20 00:58:36;;;;;;;16.98;7.70;;;;;;;-1.72;100.00;101180.59;5550732;32;34769;-72
2024/01/20 01:01:39;;;;;;;14.80;8.13;;;;;;;-1.79;100.00;101175.69;5550486;32;33158;-70
2024/01/20 01:04:43;;;;;;;13.73;8.15;;;;;;;-1.80;100.00;101174.03;5550158;32;34027;-72
2024/01/20 01:07:46;;;;;;;16.92;9.50;;;;;;;-1.87;100.00;101193.41;5550178;32;34702;-72
2024/01/20 01:10:49;;;;;;;3.22;1.62;;;;;;;-1.95;100.00;101195.50;5550642;32;34706;-73
2024/01/20 01:13:52;;;;;;;16.90;9.57;;;;;;;-1.96;100.00;101199.03;5549429;32;33967;-72
2024/01/20 01:16:55;;;;;;;2.55;1.87;;;;;;;-1.96;100.00;101198.16;5550254;32;34564;-72
2024/01/20 01:19:57;;;;;;;15.57;9.50;;;;;;;-2.05;100.00;101212.44;5550429;32;34027;-73
2024/01/20 01:23:00;;;;;;;15.52;9.13;;;;;;;-2.10;100.00;101213.53;5550098;32;34731;-71
2024/01/20 01:26:03;;;;;;;2.47;1.42;;;;;;;-2.04;100.00;101208.91;5550099;32;34120;-72
2024/01/20 01:29:07;;;;;;;16.95;9.38;;;;;;;-2.09;100.00;101218.69;5549500;32;34509;-72
2024/01/20 01:32:10;;;;;;;18.10;9.35;;;;;;;-2.14;100.00;101225.84;5549970;32;33983;-72
2024/01/20 01:35:13;;;;;;;4.28;2.10;;;;;;;-2.13;100.00;101219.69;5550073;32;34752;-72
2024/01/20 01:38:16;;;;;;;18.83;9.55;;;;;;;-2.09;100.00;101230.84;5550135;32;34079;-72
2024/01/20 01:41:19;;;;;;;16.52;8.50;;;;;;;-2.17;100.00;101227.69;5549564;32;35045;-72
2024/01/20 01:44:22;;;;;;;16.95;9.10;;;;;;;-2.09;100.00;101229.06;5549971;32;33990;-72
2024/01/20 01:47:25;;;;;;;4.05;1.85;;;;;;;-2.10;100.00;101232.59;5549837;32;33957;-72
2024/01/20 01:50:28;;;;;;;2.85;1.80;;;;;;;-2.17;100.00;101227.69;5549994;32;34021;-72
2024/01/20 01:53:32;;;;;;;15.45;8.88;;;;;;;-2.09;100.00;101226.47;5549761;32;34112;-71
2024/01/20 01:56:35;;;;;;;5.53;2.35;;;;;;;-2.11;100.00;101230.88;5549915;32;34950;-71
2024/01/20 01:59:40;;;;;;;16.75;8.88;;;;;;;-2.10;100.00;101231.72;5549901;32;33969;-72
2024/01/20 02:02:43;;;;;;;3.03;2.15;;;;;;;-2.15;100.00;101225.88;5549005;32;33872;-71
2024/01/20 02:05:46;;;;;;;17.20;9.30;;;;;;;-2.24;100.00;101222.78;5549763;32;33981;-72
2024/01/20 02:08:49;;;;;;;8.63;2.50;;;;;;;-2.28;100.00;101226.44;5549702;32;34686;-71
2024/01/20 02:11:53;;;;;;;15.13;8.75;;;;;;;-2.26;100.00;101228.94;5548791;32;34115;-72
2024/01/20 02:14:57;;;;;;;9.35;3.00;;;;;;;-2.26;100.00;101232.38;5549955;32;34000;-72
2024/01/20 02:17:59;;;;;;;14.93;9.05;;;;;;;-2.29;100.00;101235.12;5549634;32;34055;-71
2024/01/20 02:21:05;;;;;;;3.90;1.55;;;;;;;-2.21;100.00;101259.03;5549553;32;34061;-72
2024/01/20 02:24:09;;;;;;;17.77;9.27;;;;;;;-2.06;100.00;101251.47;5549608;32;34060;-73
2024/01/20 02:27:12;;;;;;;3.85;1.83;;;;;;;-2.05;100.00;101253.19;5549443;32;34010;-72
2024/01/20 02:30:15;;;;;;;15.45;8.77;;;;;;;-2.13;100.00;101258.69;5549397;32;34688;-72
2024/01/20 02:33:17;;;;;;;16.52;8.90;;;;;;;-2.18;100.00;101252.03;5548663;32;34178;-72
2024/01/20 02:36:21;;;;;;;14.32;9.38;;;;;;;-2.27;100.00;101264.47;5549444;32;33954;-72
2024/01/20 02:39:24;;;;;;;16.87;8.95;;;;;;;-2.15;100.00;101265.72;5548817;32;33979;-72
2024/01/20 02:42:27;;;;;;;18.20;9.90;;;;;;;-2.25;100.00;101267.87;5549332;32;34023;-72
2024/01/20 02:45:30;;;;;;;10.63;1.90;;;;;;;-2.23;100.00;101271.22;5549501;32;34983;-72
2024/01/20 02:48:33;;;;;;;15.68;9.38;;;;;;;-2.26;100.00;101273.13;5549483;32;33860;-71
2024/01/20 02:51:36;;;;;;;5.68;1.62;;;;;;;-2.29;100.00;101284.50;5549139;32;34518;-71
2024/01/20 02:54:39;;;;;;;15.02;9.30;;;;;;;-2.37;100.00;101281.37;5549212;32;33919;-72
2024/01/20 02:57:42;;;;;;;17.87;10.20;;;;;;;-2.33;100.00;101287.31;5548920;32;34102;-72
2024/01/20 03:00:45;;;;;;;7.32;2.72;;;;;;;-2.29;100.00;101297.50;5548999;32;34686;-72
2024/01/20 03:03:48;;;;;;;17.77;10.27;;;;;;;-2.33;100.00;101297.69;5549184;32;33857;-71
2024/01/20 03:06:51;;;;;;;7.15;2.95;;;;;;;-2.30;100.00;101297.56;5548691;32;33889;-72
2024/01/20 03:09:54;;;;;;;18.12;9.93;;;;;;;-2.31;100.00;101301.91;5548737;32;34059;-71
2024/01/20 03:12:58;;;;;;;4.78;2.22;;;;;;;-2.37;100.00;101296.12;5548423;32;34610;-72
2024/01/20 03:16:01;;;;;;;17.10;9.77;;;;;;;-2.35;100.00;101300.34;5548774;32;34475;-72
2024/01/20 03:19:05;;;;;;;17.87;9.30;;;;;;;-2.32;100.00;101291.56;5547872;32;34546;-72
2024/01/20 03:22:08;;;;;;;13.70;9.20;;;;;;;-2.28;100.00;101307.00;5548944;32;33938;-72
2024/01/20 03:25:11;;;;;;;8.02;3.03;;;;;;;-2.38;100.00;101305.69;5548561;32;34119;-72
2024/01/20 03:28:13;;;;;;;16.58;9.80;;;;;;;-2.32;100.00;101307.16;5547749;32;34797;-71
2024/01/20 03:31:17;;;;;;;5.53;2.33;;;;;;;-2.31;100.00;101321.84;5548310;32;32478;-72
2024/01/20 03:34:20;;;;;;;17.65;10.32;;;;;;;-2.34;100.00;101325.44;5548391;32;34064;-72
2024/01/20 03:37:23;;;;;;;5.40;1.95;;;;;;;-2.35;100.00;101330.69;5548549;32;33999;-71
2024/01/20 03:40:26;;;;;;;17.45;9.85;;;;;;;-2.26;100.00;101330.31;5548270;32;34100;-72
2024/01/20 03:43:31;;;;;;;16.27;9.40;;;;;;;-2.31;100.00;101330.50;5548446;32;35023;-71
2024/01/20 03:46:34;;;;;;;3.72;2.40;;;;;;;-2.33;100.00;101341.87;5547990;32;34027;-71
2024/01/20 03:49:38;;;;;;;18.70;10.05;;;;;;;-2.36;100.00;101336.78;5548068;32;34157;-72
2024/01/20 03:52:41;;;;;;;4.32;1.58;;;;;;;-2.36;100.00;101336.78;5549853;32;34035;-71
2024/01/20 03:55:46;;;;;;;15.20;9.13;;;;;;;-2.29;100.00;101341.69;5550902;32;33961;-71
2024/01/20 03:58:49;;;;;;;6.40;3.25;;;;;;;-2.30;100.00;101336.53;5551208;32;34047;-71
2024/01/20 04:01:52;;;;;;;15.45;9.38;;;;;;;-2.32;100.00;101349.59;5550748;32;34712;-71
2024/01/20 04:04:55;;;;;;;7.10;2.25;;;;;;;-2.27;100.00;101352.84;5550787;32;34021;-71
2024/01/20 04:07:58;;;;;;;17.85;8.90;;;;;;;-2.28;100.00;101345.13;5550873;32;33930;-72
2024/01/20 04:11:01;;;;;;;15.65;8.77;;;;;;;-2.24;100.00;101352.75;5550820;32;34695;-72
2024/01/20 04:14:03;;;;;;;11.70;2.65;;;;;;;-2.18;100.00;101361.19;5550764;32;34674;-73
2024/01/20 04:17:06;;;;;;;18.60;8.93;;;;;;;-2.03;100.00;101366.56;5549909;32;34003;-73
2024/01/20 04:20:09;;;;;;;15.18;7.87;;;;;;;-2.00;100.00;101368.22;5550913;32;34303;-73
2024/01/20 04:23:13;;;;;;;12.95;7.45;;;;;;;-1.97;100.00;101360.28;5550534;32;33925;-73
2024/01/20 04:26:16;;;;;;;15.25;7.90;;;;;;;-1.97;100.00;101348.13;5550534;32;34047;-74
2024/01/20 04:29:19;;;;;;;15.75;8.10;;;;;;;-1.96;100.00;101335.97;5550170;32;33984;-72
2024/01/20 04:32:22;;;;;;;2.00;1.45;;;;;;;-1.94;100.00;101337.63;5550393;32;34685;-73
2024/01/20 04:35:25;;;;;;;13.95;8.13;;;;;;;-1.97;100.00;101342.94;5550570;32;34283;-73
2024/01/20 04:38:27;;;;;;;15.85;8.23;;;;;;;-1.97;100.00;101355.09;5550876;32;34095;-73
2024/01/20 04:41:30;;;;;;;3.22;1.98;;;;;;;-1.93;100.00;101348.84;5550553;32;34044;-72
2024/01/20 04:44:33;;;;;;;14.95;7.72;;;;;;;-1.89;100.00;101359.03;5550542;32;33949;-72
2024/01/20 04:47:36;;;;;;;15.10;7.40;;;;;;;-1.83;100.00;101369.19;5550693;32;34226;-73
2024/01/20 04:50:39;;;;;;;13.93;7.50;;;;;;;-1.77;100.00;101381.94;5550416;32;34190;-73
2024/01/20 04:53:43;;;;;;;13.43;7.15;;;;;;;-1.81;100.00;101385.59;5549727;32;34555;-73
2024/01/20 04:56:45;;;;;;;4.40;2.03;;;;;;;-1.85;100.00;101402.25;5550299;32;34041;-72
2024/01/20 04:59:48;;;;;;;13.35;7.50;;;;;;;-1.87;100.00;101403.19;5550240;32;35085;-72
2024/01/20 05:02:51;;;;;;;15.38;7.68;;;;;;;-1.85;100.00;101401.38;5550455;32;33888;-73
2024/01/20 05:05:54;;;;;;;13.85;7.05;;;;;;;-1.91;100.00;101399.87;5550048;32;34255;-73
2024/01/20 05:08:57;;;;;;;16.62;8.07;;;;;;;-1.83;100.00;101407.34;5550248;32;33907;-73
2024/01/20 05:12:00;;;;;;;5.47;1.73;;;;;;;-1.86;100.00;101410.94;5550225;32;34656;-71
2024/01/20 05:15:03;;;;;;;16.70;7.87;;;;;;;-1.88;100.00;101423.16;5550156;32;35092;-73
2024/01/20 05:18:06;;;;;;;15.93;8.52;;;;;;;-1.90;100.00;101418.94;5550117;32;33933;-72
2024/01/20 05:21:13;;;;;;;14.57;8.57;;;;;;;-1.95;100.00;101420.88;5550005;32;34995;-72
2024/01/20 05:24:16;;;;;;;17.35;8.30;;;;;;;-2.02;100.00;101422.88;5549974;32;33983;-73
2024/01/20 05:27:18;;;;;;;16.02;8.55;;;;;;;-2.03;100.00;101425.56;5550008;32;35164;-72
2024/01/20 05:30:21;;;;;;;1.60;1.23;;;;;;;-2.08;100.00;101417.91;5549937;32;33985;-71
2024/01/20 05:33:24;;;;;;;17.20;9.07;;;;;;;-2.20;100.00;101424.47;5549264;32;34706;-71
2024/01/20 05:36:28;;;;;;;5.87;2.78;;;;;;;-2.17;100.00;101427.84;5549400;32;34362;-71
2024/01/20 05:39:30;;;;;;;14.13;8.85;;;;;;;-2.15;100.00;101439.88;5549911;32;34061;-72
2024/01/20 05:42:34;;;;;;;5.95;2.28;;;;;;;-2.22;100.00;101438.44;5550219;32;34085;-72
2024/01/20 05:45:36;;;;;;;19.90;9.50;;;;;;;-2.21;100.00;101445.31;5549302;32;34103;-71
2024/01/20 05:48:40;;;;;;;15.68;9.73;;;;;;;-2.25;100.00;101449.81;5549910;32;34108;-72
2024/01/20 05:51:43;;;;;;;4.22;2.25;;;;;;;-2.33;100.00;101459.66;5549744;32;34061;-71
2024/01/20 05:54:46;;;;;;;18.77;9.10;;;;;;;-2.39;100.00;101466.84;5536653;32;33923;-71
2024/01/20 05:57:49;;;;;;;14.82;2.30;;;;;;;-2.38;100.00;101453.78;5549847;32;34901;-72
2024/01/20 06:00:52;;;;;;;14.87;9.20;;;;;;;-2.40;100.00;101471.19;5549696;32;34066;-72
2024/01/20 06:03:55;;;;;;;13.88;8.80;;;;;;;-2.40;100.00;101476.38;5550090;32;34100;-71
2024/01/20 06:06:57;;;;;;;8.57;3.60;;;;;;;-2.40;100.00;101486.78;5549682;32;34127;-72
2024/01/20 06:10:00;;;;;;;18.33;9.13;;;;;;;-2.44;100.00;101481.75;5549707;32;34065;-72
2024/01/20 06:13:03;;;;;;;3.33;1.95;;;;;;;-2.42;100.00;101490.34;5548860;32;34734;-72
2024/01/20 06:16:06;;;;;;;18.15;9.32;;;;;;;-2.46;100.00;101502.59;5549968;32;34828;-71
2024/01/20 06:19:09;;;;;;;17.35;9.40;;;;;;;-2.39;100.00;101498.88;5548793;32;34033;-71
2024/01/20 06:22:12;;;;;;;15.50;9.18;;;;;;;-2.36;100.00;101500.50;5549507;32;34190;-72
2024/01/20 06:25:15;;;;;;;5.53;2.17;;;;;;;-2.29;100.00;101501.97;5549494;32;34624;-72
2024/01/20 06:28:18;;;;;;;15.18;9.20;;;;;;;-2.22;100.00;101511.19;5549513;32;35366;-72
2024/01/20 06:31:25;;;;;;;17.40;8.73;;;;;;;-2.19;100.00;101516.31;5545041;32;136719;-72
2024/01/20 06:34:28;;;;;;;13.55;8.95;;;;;;;-2.28;100.00;101514.06;5548923;32;34634;-71
2024/01/20 06:37:31;;;;;;;6.53;2.20;;;;;;;-2.22;100.00;101519.84;5549069;32;34853;-72
2024/01/20 06:40:34;;;;;;;15.70;9.00;;;;;;;-2.16;100.00;101520.53;5549047;32;34839;-72
2024/01/20 06:43:37;;;;;;;3.95;2.05;;;;;;;-2.14;100.00;101524.78;5549056;32;34918;-72
2024/01/20 06:46:40;;;;;;;16.80;9.35;;;;;;;-2.22;100.00;101535.44;5549234;32;34054;-71
2024/01/20 06:49:49;;;;;;;16.23;9.43;;;;;;;-2.13;100.00;101541.22;5549036;32;33918;-72
2024/01/20 06:52:52;;;;;;;17.73;9.65;;;;;;;-2.12;100.00;101554.12;5548401;32;33951;-73
2024/01/20 06:55:55;;;;;;;14.82;9.15;;;;;;;-2.15;100.00;101554.25;5548973;32;33876;-72
2024/01/20 06:58:59;;;;;;;2.30;1.30;;;;;;;-2.16;100.00;101560.38;5549044;32;33999;-72
2024/01/20 07:02:02;;;;;;;14.80;9.40;;;;;;;-2.18;100.00;101563.94;5548953;32;34696;-71
2024/01/20 07:05:05;;;;;;;4.53;2.40;;;;;;;-2.15;100.00;101563.81;5548831;32;34147;-72
2024/01/20 07:08:09;;;;;;;18.10;10.10;;;;;;;-2.11;100.00;101571.44;5548700;32;33903;-72
2024/01/20 07:11:12;;;;;;;15.10;9.63;;;;;;;-2.08;100.00;101580.88;5548600;32;34624;-71
2024/01/20 07:14:15;;;;;;;12.27;2.75;;;;;;;-2.11;100.00;101593.97;5548490;32;33950;-72
2024/01/20 07:17:18;;;;;;;15.93;9.48;;;;;;;-2.07;100.00;101595.56;5548711;32;33955;-73
2024/01/20 07:20:21;;;;;;;18.17;9.55;;;;;;;-1.97;100.00;101607.31;5548436;32;33970;-73
2024/01/20 07:23:23;;;;;;;14.57;9.50;;;;;;;-1.93;100.00;101601.06;5548522;32;34040;-72
2024/01/20 07:26:26;;;;;;;16.73;8.75;;;;;;;-1.90;100.00;101607.03;5550638;32;34045;-72
2024/01/20 07:29:29;;;;;;;16.02;9.85;;;;;;;-1.84;100.00;101611.16;5551302;32;34758;-72
2024/01/20 07:32:32;;;;;;;16.33;9.65;;;;;;;-1.83;100.00;101618.88;5550988;32;33935;-72
2024/01/20 07:35:35;;;;;;;15.45;9.35;;;;;;;-1.91;100.00;101623.53;5550984;32;33940;-72
2024/01/20 07:38:37;;;;;;;20.45;10.07;;;;;;;-1.88;100.00;101631.22;5551081;32;33971;-72
2024/01/20 07:41:40;;;;;;;18.05;10.38;;;;;;;-1.87;100.00;101632.91;5551005;32;34077;-72
2024/01/20 07:44:43;;;;;;;3.55;2.47;;;;;;;-1.77;100.00;101636.84;5550532;32;34284;-71
2024/01/20 07:47:47;;;;;;;15.80;9.68;;;;;;;-1.83;100.00;101634.47;5550598;32;34246;-72
2024/01/20 07:50:50;;;;;;;20.33;10.32;;;;;;;-1.82;100.00;101646.59;5550576;32;33998;-72
2024/01/20 07:53:53;;;;;;;18.12;9.77;;;;;;;-1.73;100.00;101645.38;5550763;32;34641;-72
2024/01/20 07:56:55;;;;;;;15.93;9.50;;;;;;;-1.58;100.00;101649.16;5550813;32;34164;-72
2024/01/20 07:59:59;;;;;;;17.12;9.95;;;;;;;-1.59;100.00;101647.44;5550468;32;34596;-72
2024/01/20 08:03:02;;;;;;;18.17;9.90;;;;;;;-1.52;100.00;101656.72;5550663;32;34015;-73
2024/01/20 08:06:05;;;;;;;20.08;10.07;;;;;;;-1.46;100.00;101656.50;5550448;32;33944;-73
2024/01/20 08:09:10;;;;;;;19.58;9.65;;;;;;;-1.39;100.00;101656.19;5550532;32;34010;-72
2024/01/20 08:12:13;;;;;;;14.32;9.45;;;;;;;-1.35;100.00;101664.69;5550815;32;33923;-73
2024/01/20 08:15:16;;;;;;;16.37;10.15;;;;;;;-1.28;100.00;101665.31;5550762;32;33995;-72
2024/01/20 08:18:18;;;;;;;17.95;10.27;;;;;;;-1.21;100.00;101662.41;5550375;32;34172;-72
2024/01/20 08:21:22;;;;;;;18.85;10.82;;;;;;;-1.17;100.00;101663.13;5550499;32;34041;-73
2024/01/20 08:24:25;;;;;;;5.90;2.78;;;;;;;-1.20;100.00;101660.63;5550360;32;33955;-73
2024/01/20 08:27:27;;;;;;;21.12;11.32;;;;;;;-1.22;100.00;101667.69;5550505;32;34075;-73
2024/01/20 08:30:32;;;;;;;19.87;10.82;;;;;;;-1.10;100.00;101675.84;5550584;32;34145;-72
2024/01/20 08:33:35;;;;;;;18.87;10.63;;;;;;;-0.98;100.00;101669.28;5550119;32;34242;-72
2024/01/20 08:36:38;;;;;;;15.60;9.52;;;;;;;-0.95;100.00;101675.22;5550260;32;34728;-73
2024/01/20 08:39:41;;;;;;;18.92;10.13;;;;;;;-0.95;100.00;101671.75;5549740;32;34085;-73
2024/01/20 08:42:46;;;;;;;16.33;9.63;;;;;;;-0.86;100.00;101676.59;5550372;32;34124;-73
2024/01/20 08:45:50;;;;;;;16.48;9.40;;;;;;;-0.86;100.00;101689.62;5550269;32;34109;-73
2024/01/20 08:48:53;;;;;;;17.58;10.10;;;;;;;-0.79;100.00;101692.81;5549922;32;34041;-73
2024/01/20 08:51:56;;;;;;;17.08;9.02;;;;;;;-0.73;100.00;101695.19;5549876;32;34180;-73
2024/01/20 08:54:59;;;;;;;16.73;9.15;;;;;;;-0.69;100.00;101695.00;5550118;32;35517;-72
2024/01/20 08:58:02;;;;;;;15.80;10.02;;;;;;;-0.64;100.00;101686.97;5549544;32;33894;-72
2024/01/20 09:01:06;;;;;;;16.58;9.35;;;;;;;-0.55;100.00;101689.19;5550169;32;34734;-73
2024/01/20 09:04:09;;;;;;;20.65;9.90;;;;;;;-0.54;100.00;101702.16;5550292;32;34127;-73
2024/01/20 09:07:12;;;;;;;16.35;8.60;;;;;;;-0.49;100.00;101700.22;5550373;32;34001;-73
2024/01/20 09:10:15;;;;;;;17.02;9.25;;;;;;;-0.46;100.00;101701.81;5549907;32;34002;-73
2024/01/20 09:13:18;;;;;;;15.57;9.15;;;;;;;-0.42;100.00;101700.78;5549753;32;34654;-73
2024/01/20 09:16:21;;;;;;;18.12;9.40;;;;;;;-0.34;100.00;101701.31;5550475;32;33905;-74
2024/01/20 09:19:24;;;;;;;15.85;8.63;;;;;;;-0.27;100.00;101707.09;5549521;32;33987;-73
2024/01/20 09:22:28;;;;;;;18.20;9.23;;;;;;;-0.21;100.00;101702.47;5549620;32;33995;-74
2024/01/20 09:25:31;;;;;;;17.42;9.05;;;;;;;-0.07;100.00;101702.72;5550118;32;34743;-75
2024/01/20 09:28:34;;;;;;;18.10;9.23;;;;;;;-0.06;100.00;101707.03;5550058;32;34019;-75
2024/01/20 09:31:37;;;;;;;14.70;8.88;;;;;;;-0.03;100.00;101706.88;5550247;32;34687;-74
2024/01/20 09:34:40;;;;;;;25.85;8.68;;;;;;;-0.02;100.00;101708.56;5550105;32;34053;-75
2024/01/20 09:37:44;;;;;;;13.40;8.57;;;;;;;-0.01;100.00;101712.03;5549847;32;34693;-74
2024/01/20 09:40:46;;;;;;;15.13;7.93;;;;;;;0.03;100.00;101710.97;5549811;32;35076;-73
2024/01/20 09:43:50;;;;;;;15.23;7.93;;;;;;;0.11;100.00;101716.69;5549916;32;34081;-73
2024/01/20 09:46:54;;;;;;;15.80;8.32;;;;;;;0.12;100.00;101701.88;5549772;32;34787;-73
2024/01/20 09:49:57;;;;;;;14.30;8.35;;;;;;;0.17;100.00;101702.53;5547449;32;35168;-73
2024/01/20 09:53:14;;;;;;;13.70;7.40;;;;;;;0.27;100.00;101698.59;5548850;32;32932;-73
2024/01/20 09:56:18;;;;;;;18.85;8.05;;;;;;;0.30;100.00;101704.50;5549159;32;34048;-73
2024/01/20 09:59:21;;;;;;;15.35;8.63;;;;;;;0.44;100.00;101709.94;5549875;32;34497;-72
2024/01/20 10:02:29;;;;;;;17.70;8.43;;;;;;;0.47;100.00;101705.50;5549706;32;34976;-73
2024/01/20 10:05:34;;;;;;;16.20;8.30;;;;;;;0.51;100.00;101702.69;5549621;32;33898;-73
2024/01/20 10:08:37;;;;;;;15.52;8.50;;;;;;;0.51;100.00;101688.78;5549592;32;33999;-73
2024/01/20 10:11:44;;;;;;;13.82;8.38;;;;;;;0.49;100.00;101699.28;5549528;32;34041;-75
2024/01/20 10:14:50;;;;;;;18.42;9.18;;;;;;;0.48;100.00;101694.16;5549725;32;34787;-73
2024/01/20 10:17:54;;;;;;;20.42;8.70;;;;;;;0.37;100.00;101692.03;5549661;32;34200;-73
2024/01/20 10:21:02;;;;;;;18.58;9.05;;;;;;;0.20;100.00;101694.53;5549798;32;34322;-73
2024/01/20 10:24:07;;;;;;;14.18;8.20;;;;;;;0.20;100.00;101684.97;5549164;32;34143;-74
2024/01/20 10:27:17;;;;;;;14.40;8.43;;;;;;;0.20;100.00;101690.19;5548621;32;34758;-73
2024/01/20 10:30:20;;;;;;;16.67;8.10;;;;;;;0.16;100.00;101698.22;5549224;32;34010;-73
2024/01/20 10:33:26;;;;;;;14.10;8.25;;;;;;;0.17;100.00;101699.91;5549168;32;34755;-73
2024/01/20 10:36:31;;;;;;;15.43;7.97;;;;;;;0.30;100.00;101696.66;5548386;32;34699;-74
2024/01/20 10:39:41;;;;;;;15.43;7.80;;;;;;;0.38;100.00;101694.56;5548562;32;34087;-73
2024/01/20 10:42:47;;;;;;;16.60;8.40;;;;;;;0.44;100.00;101690.81;5549576;32;33985;-74
2024/01/20 10:46:20;;;;;;;14.48;7.50;;;;;;;0.66;100.00;101699.34;5549101;32;33565;-73
2024/01/20 10:49:24;;;;;;;16.17;8.23;;;;;;;0.77;100.00;101689.25;5548823;32;32404;-73
2024/01/20 10:52:28;;;;;;;14.63;7.60;;;;;;;0.86;100.00;101693.19;5548789;32;34319;-73
2024/01/20 10:55:32;;;;;;;16.00;8.05;;;;;;;0.92;100.00;101685.03;5548908;32;34006;-73
2024/01/20 10:58:46;;;;;;;17.65;7.28;;;;;;;0.92;100.00;101690.25;5548885;32;34014;-73
2024/01/20 11:01:49;;;;;;;14.77;7.00;;;;;;;1.08;100.00;101683.38;5551071;32;34074;-73
2024/01/20 11:04:52;;;;;;;20.00;7.78;;;;;;;1.10;100.00;101691.13;5550392;32;34782;-73
2024/01/20 11:07:56;;;;;;;13.62;7.10;;;;;;;1.13;100.00;101699.66;5551512;32;34044;-73
2024/01/20 11:11:01;;;;;;;15.07;7.60;;;;;;;1.26;100.00;101702.50;5537779;32;34244;-73
2024/01/20 11:14:04;;;;;;;16.08;7.62;;;;;;;1.31;100.00;101698.75;5551392;32;34143;-73
2024/01/20 11:17:28;;;;;;;14.80;7.15;;;;;;;1.27;100.00;101686.75;5551089;32;33328;-73
2024/01/20 11:20:31;;;;;;;19.48;8.02;;;;;;;1.15;100.00;101689.16;5550826;32;33922;-73
2024/01/20 11:23:34;;;;;;;18.60;8.00;;;;;;;1.03;100.00;101700.19;5550705;32;35025;-74
2024/01/20 11:26:37;;;;;;;17.58;8.20;;;;;;;1.00;100.00;101695.97;5551102;32;34334;-73
2024/01/20 11:29:40;;;;;;;13.95;7.47;;;;;;;1.06;100.00;101694.81;5550837;32;34169;-74
2024/01/20 11:32:45;;;;;;;15.52;7.97;;;;;;;0.96;100.00;101694.44;5550902;32;34055;-75
2024/01/20 11:35:53;;;;;;;12.93;7.53;;;;;;;1.06;100.00;101689.59;5550970;32;34004;-74
2024/01/20 11:38:58;;;;;;;17.10;8.38;;;;;;;1.20;100.00;101698.44;5550206;32;34086;-73
2024/01/20 11:42:02;;;;;;;14.65;7.80;;;;;;;1.34;100.00;101696.91;5550971;32;33990;-75
2024/01/20 11:45:06;;;;;;;16.33;8.50;;;;;;;1.35;100.00;101689.00;5550891;32;34156;-74
2024/01/20 11:48:09;;;;;;;16.37;7.95;;;;;;;1.50;100.00;101679.53;5550888;32;34760;-74
2024/01/20 11:51:19;;;;;;;16.17;8.32;;;;;;;1.50;100.00;101682.97;5550887;32;34380;-73
2024/01/20 11:54:22;;;;;;;13.13;7.55;;;;;;;1.40;100.00;101679.16;5550854;32;34269;-73
2024/01/20 11:57:29;;;;;;;15.13;7.80;;;;;;;1.38;100.00;101677.53;5550488;32;34800;-74
2024/01/20 12:00:32;;;;;;;17.80;8.52;;;;;;;1.27;100.00;101681.53;5550236;32;33624;-74
2024/01/20 12:03:35;;;;;;;15.93;8.20;;;;;;;1.28;100.00;101679.75;5550669;32;34318;-72
2024/01/20 12:06:38;;;;;;;15.90;7.95;;;;;;;1.16;100.00;101678.59;5549782;32;33652;-73
2024/01/20 12:09:45;;;;;;;16.92;7.85;;;;;;;1.16;100.00;101669.94;5550613;32;34011;-74
2024/01/20 12:12:48;;;;;;;15.82;8.10;;;;;;;1.12;100.00;101668.38;5549134;32;34352;-72
2024/01/20 12:15:51;;;;;;;18.83;8.60;;;;;;;1.26;100.00;101665.91;5550764;32;34000;-74
2024/01/20 12:18:56;;;;;;;17.70;8.35;;;;;;;1.45;100.00;101664.09;5550934;32;33934;-74
2024/01/20 12:22:01;;;;;;;13.93;7.70;;;;;;;2.08;100.00;101672.09;5550573;32;34833;-75
2024/01/20 12:25:05;;;;;;;18.10;8.00;;;;;;;2.30;100.00;101659.53;5550285;32;35775;-75
2024/01/20 12:28:08;;;;;;;13.73;8.05;;;;;;;2.50;100.00;101659.28;5550428;32;33918;-73
2024/01/20 12:31:11;;;;;;;14.60;8.35;;;;;;;2.34;100.00;101649.72;5550439;32;35123;-74
2024/01/20 12:34:20;;;;;;;15.60;8.30;;;;;;;2.50;100.00;101653.22;5550015;32;34203;-76
2024/01/20 12:37:23;;;;;;;14.70;7.57;;;;;;;2.74;100.00;101653.59;5550131;32;34324;-74
2024/01/20 12:40:27;;;;;;;13.57;7.00;;;;;;;2.85;100.00;101652.06;5550434;32;34016;-74
2024/01/20 12:43:31;;;;;;;16.45;7.68;;;;;;;2.88;100.00;101644.03;5550408;32;33996;-75
2024/01/20 12:46:35;;;;;;;14.20;7.35;;;;;;;2.66;99.05;101638.34;5550328;32;34706;-74
2024/01/20 12:49:41;;;;;;;16.60;7.60;;;;;;;2.48;100.00;101645.41;5550288;32;35060;-74
2024/01/20 12:52:45;;;;;;;19.70;7.18;;;;;;;2.82;100.00;101641.75;5550342;32;34158;-72
2024/01/20 12:55:47;;;;;;;14.43;6.90;;;;;;;2.78;99.36;101640.25;5549609;32;34629;-73
2024/01/20 12:58:51;;;;;;;15.00;7.15;;;;;;;2.89;98.34;101643.09;5550271;32;34748;-73
2024/01/20 13:01:53;;;;;;;16.00;7.30;;;;;;;2.64;95.69;101642.78;5550703;32;34107;-72
2024/01/20 13:05:03;;;;;;;12.20;6.87;;;;;;;2.69;95.79;101651.25;5550084;32;34080;-74
2024/01/20 13:08:06;;;;;;;17.70;7.20;;;;;;;2.50;100.00;101640.97;5549549;32;34591;-73
2024/01/20 13:11:09;;;;;;;16.05;7.03;;;;;;;2.56;99.84;101653.72;5549948;32;34092;-74
2024/01/20 13:14:12;;;;;;;15.57;8.10;;;;;;;2.73;94.95;101642.28;5549621;32;34724;-74
2024/01/20 13:17:15;;;;;;;14.02;7.15;;;;;;;2.56;96.08;101655.50;5549811;32;34662;-74
2024/01/20 13:20:18;;;;;;;14.50;7.60;;;;;;;2.48;99.69;101649.81;5549134;32;34677;-74
2024/01/20 13:23:21;;;;;;;14.80;7.57;;;;;;;2.24;100.00;101657.25;5549772;32;33989;-75
2024/01/20 13:26:24;;;;;;;15.07;7.45;;;;;;;2.07;100.00;101667.78;5549946;32;34253;-73
2024/01/20 13:29:27;;;;;;;16.83;7.78;;;;;;;1.95;100.00;101673.66;5550095;32;34167;-74
2024/01/20 13:32:29;;;;;;;16.33;7.82;;;;;;;1.88;100.00;101683.63;5549829;32;34178;-74
2024/01/20 13:35:32;;;;;;;16.25;7.87;;;;;;;1.90;100.00;101681.75;5550005;32;34190;-73
2024/01/20 13:38:37;;;;;;;16.25;7.72;;;;;;;1.82;100.00;101693.56;5549864;32;34139;-74
2024/01/20 13:41:40;;;;;;;16.02;7.47;;;;;;;1.73;100.00;101690.50;5549691;32;34750;-74
2024/01/20 13:44:43;;;;;;;16.50;7.62;;;;;;;1.74;100.00;101696.59;5550203;32;34051;-72
2024/01/20 13:47:47;;;;;;;14.38;7.60;;;;;;;1.77;100.00;101691.19;5549652;32;34646;-72
2024/01/20 13:50:49;;;;;;;14.35;7.65;;;;;;;1.72;100.00;101686.19;5549538;32;34834;-74
2024/01/20 13:53:53;;;;;;;14.57;7.60;;;;;;;1.58;100.00;101687.81;5536225;32;34766;-73
2024/01/20 13:56:56;;;;;;;16.80;8.43;;;;;;;1.60;100.00;101691.19;5549405;32;35019;-73